Time;durP1;ratioP1;P1;durP2;ratioP2;P2;SDS_P1;SDS_P2;PMS_P1;PMS_P2;Temp;Humidity;BMP_temperature;BMP_pressure;BME280_temperature;BME280_humidity;BME280_pressure;Samples;Min_cycle;Max_cycle;Signal;HPM_P1;HPM_P2
2023/10/19 00:00:48;;;;;;;53.23;29.90;;;;;;;-141.97;100.00;47711.28;4977900;28;20191;-79
2023/10/19 00:03:13;;;;;;;55.33;29.97;;;;;;;-141.97;100.00;47722.81;4991993;28;20195;-80
2023/10/19 00:05:39;;;;;;;56.43;30.97;;;;;;;-141.97;100.00;47697.84;4992578;28;20171;-80
2023/10/19 00:08:36;;;;;;;56.40;30.67;;;;;;;-141.97;100.00;47859.28;4992340;28;20512;-82
2023/10/19 00:11:08;;;;;;;54.67;30.27;;;;;;;-141.97;100.00;47757.41;4987976;28;20688;-81
2023/10/19 00:13:38;;;;;;;54.77;30.73;;;;;;;-141.97;100.00;47765.09;4965361;28;20192;-81
2023/10/19 00:16:12;;;;;;;52.87;29.13;;;;;;;-141.97;100.00;47715.13;4982719;28;20184;-81
2023/10/19 00:18:41;;;;;;;56.30;29.83;;;;;;;-141.97;100.00;47717.06;4953826;29;20202;-81
2023/10/19 00:21:25;;;;;;;52.80;28.30;;;;;;;-141.97;100.00;47717.06;4954026;29;20200;-81
2023/10/19 00:23:56;;;;;;;52.37;28.97;;;;;;;-141.97;100.00;47734.34;4953850;29;20331;-81
2023/10/19 00:26:24;;;;;;;54.37;29.70;;;;;;;-141.97;100.00;47726.66;4953662;29;20676;-80
2023/10/19 00:28:55;;;;;;;50.03;28.57;;;;;;;-141.97;100.00;47730.50;4954100;29;20232;-80
2023/10/19 00:31:25;;;;;;;52.10;27.90;;;;;;;-141.97;100.00;47730.50;4959659;28;20713;-80
2023/10/19 00:33:54;;;;;;;54.40;28.33;;;;;;;-141.97;100.00;47672.84;5032426;28;20186;-81
2023/10/19 00:36:20;;;;;;;48.53;28.00;;;;;;;-141.97;100.00;47730.50;5034227;28;20170;-80
2023/10/19 00:41:37;;;;;;;47.57;27.73;;;;;;;-141.97;100.00;47720.91;5033953;28;20228;-81
2023/10/19 00:44:03;;;;;;;48.17;26.97;;;;;;;-141.97;100.00;47720.91;5039219;28;20220;-81
2023/10/19 00:46:32;;;;;;;46.87;27.63;;;;;;;-141.97;100.00;47713.22;5057424;28;20162;-81
2023/10/19 00:49:00;;;;;;;47.27;27.40;;;;;;;-141.97;100.00;47720.91;5037449;28;20193;-80
2023/10/19 00:53:56;;;;;;;48.00;27.13;;;;;;;-141.97;100.00;47692.06;5033476;28;20181;-80
2023/10/19 00:56:25;;;;;;;46.30;27.70;;;;;;;-141.97;100.00;47701.69;5033950;28;20556;-81
2023/10/19 00:59:00;;;;;;;50.77;28.17;;;;;;;-141.97;100.00;47732.44;5033409;28;20177;-83
2023/10/19 01:01:29;;;;;;;56.67;30.40;;;;;;;-141.97;100.00;47705.53;5033341;28;20165;-82
2023/10/19 01:03:58;;;;;;;62.50;32.07;;;;;;;-141.97;100.00;47726.66;5033143;28;20198;-83
2023/10/19 01:06:25;;;;;;;53.60;29.73;;;;;;;-141.97;100.00;47711.28;5033357;28;20207;-82
2023/10/19 01:08:52;;;;;;;58.70;31.00;;;;;;;-141.97;100.00;47695.91;5033682;28;20150;-82
2023/10/19 01:11:20;;;;;;;54.70;29.43;;;;;;;-141.97;100.00;47682.47;5035488;28;20158;-80
2023/10/19 01:13:51;;;;;;;54.70;29.43;;;;;;;-141.97;100.00;47688.22;5037975;28;20150;-79
2023/10/19 01:16:20;;;;;;;51.30;28.73;;;;;;;-141.97;100.00;47718.97;5033625;28;20614;-79
2023/10/19 01:18:53;;;;;;;51.00;28.17;;;;;;;-141.97;100.00;47788.19;5032812;28;20634;-79
2023/10/19 01:21:21;;;;;;;50.20;28.20;;;;;;;-141.97;100.00;47709.38;5033419;28;20162;-80
2023/10/19 01:23:48;;;;;;;48.40;28.70;;;;;;;-141.97;100.00;47713.22;5033182;28;20198;-79
2023/10/19 01:26:18;;;;;;;52.10;27.30;;;;;;;-141.97;100.00;47709.38;5032810;28;20708;-80
2023/10/19 01:28:47;;;;;;;53.87;27.37;;;;;;;-141.97;100.00;47680.53;5032792;28;20199;-80
2023/10/19 01:31:38;;;;;;;48.83;28.43;;;;;;;-141.97;100.00;47688.22;5032749;28;20181;-80
2023/10/19 01:34:03;;;;;;;48.40;27.40;;;;;;;-141.97;100.00;47715.13;5032537;28;20224;-80
2023/10/19 01:36:35;;;;;;;49.20;28.23;;;;;;;-141.97;100.00;47761.25;5032802;28;20154;-81
2023/10/19 01:39:01;;;;;;;49.60;27.73;;;;;;;-141.97;100.00;47703.59;5032409;28;20700;-80
2023/10/19 01:41:27;;;;;;;47.83;26.40;;;;;;;-141.97;100.00;47736.28;5032147;28;20296;-81
2023/10/19 01:43:54;;;;;;;44.30;26.30;;;;;;;-141.97;100.00;47699.75;5032667;28;20190;-81
2023/10/19 01:46:36;;;;;;;46.80;27.03;;;;;;;-141.97;100.00;47753.56;5032395;28;20627;-80
2023/10/19 01:49:04;;;;;;;47.87;26.07;;;;;;;-141.97;100.00;47745.88;5032387;28;20170;-80
2023/10/19 01:51:32;;;;;;;47.27;26.63;;;;;;;-141.97;100.00;47818.94;5012457;28;20166;-80
2023/10/19 01:54:00;;;;;;;47.73;26.43;;;;;;;-141.97;100.00;47726.66;5028120;28;20228;-80
2023/10/19 01:56:26;;;;;;;45.47;25.90;;;;;;;-141.97;100.00;47718.97;5032006;28;20507;-79
2023/10/19 01:58:54;;;;;;;45.30;25.57;;;;;;;-141.97;100.00;47692.06;5042386;28;20656;-81
2023/10/19 02:01:20;;;;;;;45.90;25.87;;;;;;;-141.97;100.00;47765.09;5047655;28;20178;-81
2023/10/19 02:03:47;;;;;;;49.23;26.57;;;;;;;-141.97;100.00;47720.91;5031422;28;20278;-81
2023/10/19 02:06:17;;;;;;;45.03;26.07;;;;;;;-141.97;100.00;47826.63;5031675;28;20170;-81
2023/10/19 02:08:50;;;;;;;55.37;25.77;;;;;;;-141.97;100.00;47724.75;5031747;28;20532;-81
2023/10/19 02:11:20;;;;;;;46.97;25.73;;;;;;;-141.97;100.00;47713.22;5031506;28;20196;-81
2023/10/19 02:13:46;;;;;;;44.77;24.50;;;;;;;-141.97;100.00;47718.97;5031174;28;20224;-80
2023/10/19 02:16:14;;;;;;;39.77;24.23;;;;;;;-141.97;100.00;47742.03;5013063;28;20236;-80
2023/10/19 02:18:41;;;;;;;43.17;24.67;;;;;;;-141.97;100.00;47713.22;5031923;28;20181;-81
2023/10/19 02:21:07;;;;;;;43.50;24.13;;;;;;;-141.97;100.00;47688.22;5052250;28;20175;-81
2023/10/19 02:23:34;;;;;;;47.30;25.60;;;;;;;-141.97;100.00;47740.13;5051964;28;20257;-81
2023/10/19 02:26:00;;;;;;;49.53;25.23;;;;;;;-141.97;100.00;47742.03;5032685;28;20177;-80
2023/10/19 02:28:31;;;;;;;46.23;26.33;;;;;;;-141.97;100.00;47709.38;5036935;28;20170;-80
2023/10/19 02:30:57;;;;;;;48.93;25.60;;;;;;;-141.97;100.00;47742.03;5046172;28;20629;-80
2023/10/19 02:33:22;;;;;;;45.30;24.70;;;;;;;-141.97;100.00;47669.00;5038120;28;20235;-80
2023/10/19 02:35:48;;;;;;;45.23;25.27;;;;;;;-141.97;100.00;47722.81;5031180;28;20205;-80
2023/10/19 02:38:13;;;;;;;45.60;25.47;;;;;;;-141.97;100.00;47743.97;5031290;28;20165;-81
2023/10/19 02:40:39;;;;;;;49.53;27.13;;;;;;;-141.97;100.00;47713.22;5030577;28;20217;-82
2023/10/19 02:43:04;;;;;;;47.67;26.03;;;;;;;-141.97;100.00;47715.13;5030915;28;20243;-79
2023/10/19 02:45:31;;;;;;;59.20;30.50;;;;;;;-141.97;100.00;47720.91;5030756;28;20190;-80
2023/10/19 02:47:58;;;;;;;63.50;33.37;;;;;;;-141.97;100.00;47720.91;5031044;28;20607;-80
2023/10/19 02:50:26;;;;;;;55.20;30.30;;;;;;;-141.97;100.00;47717.06;5030983;28;20185;-80
2023/10/19 02:52:53;;;;;;;43.40;25.40;;;;;;;-141.97;100.00;47701.69;5031938;28;20162;-80
2023/10/19 02:55:20;;;;;;;44.33;24.50;;;;;;;-141.97;100.00;47674.78;5031522;28;20599;-80
2023/10/19 02:57:46;;;;;;;36.70;22.23;;;;;;;-141.97;100.00;47740.13;5031238;28;20163;-80
2023/10/19 03:00:14;;;;;;;39.97;22.90;;;;;;;-141.97;100.00;47726.66;5031614;28;20189;-80
2023/10/19 03:02:40;;;;;;;31.47;19.63;;;;;;;-141.97;100.00;47707.44;5011620;28;20358;-81
2023/10/19 03:05:25;;;;;;;29.77;18.97;;;;;;;-141.97;100.00;47717.06;5026539;28;20221;-81
2023/10/19 03:07:52;;;;;;;28.50;18.57;;;;;;;-141.97;100.00;47738.19;5012953;28;20166;-80
2023/10/19 03:10:34;;;;;;;32.63;18.63;;;;;;;-141.97;100.00;47743.97;5013197;28;20198;-80
2023/10/19 03:12:59;;;;;;;30.73;18.30;;;;;;;-141.97;100.00;47697.84;5040648;28;20162;-79
2023/10/19 03:15:24;;;;;;;29.93;17.93;;;;;;;-141.97;100.00;47726.66;5053848;28;20189;-80
2023/10/19 03:17:53;;;;;;;31.63;18.97;;;;;;;-141.97;100.00;47697.84;5031203;28;20173;-83
2023/10/19 03:20:23;;;;;;;33.67;19.20;;;;;;;-141.97;100.00;47670.91;5030999;28;20208;-83
2023/10/19 03:22:49;;;;;;;34.40;16.90;;;;;;;-141.97;100.00;47780.47;5030708;28;20540;-82
2023/10/19 03:26:17;;;;;;;28.63;17.07;;;;;;;-141.97;100.00;47717.06;5030561;28;20351;-81
2023/10/19 03:28:08;;;;;;;30.93;17.37;;;;;;;-141.97;100.00;47847.75;5032575;28;20189;-82
2023/10/19 03:30:38;;;;;;;29.70;17.53;;;;;;;-141.97;100.00;47726.66;5035166;28;20158;-82
2023/10/19 03:33:04;;;;;;;31.60;18.63;;;;;;;-141.97;100.00;47715.13;5035084;28;20614;-83
2023/10/19 03:35:30;;;;;;;30.73;18.30;;;;;;;-141.97;100.00;47747.81;5034932;28;20166;-82
2023/10/19 03:37:58;;;;;;;28.90;17.67;;;;;;;-141.97;100.00;47753.56;5016990;28;20547;-82
2023/10/19 03:40:32;;;;;;;29.57;16.83;;;;;;;-141.97;100.00;47680.53;5026952;28;20291;-82
2023/10/19 03:42:58;;;;;;;30.60;18.60;;;;;;;-141.97;100.00;47728.59;5036349;28;20785;-81
2023/10/19 03:45:24;;;;;;;33.37;18.60;;;;;;;-141.97;100.00;47711.28;5036350;28;20162;-81
2023/10/19 03:47:53;;;;;;;33.67;19.03;;;;;;;-141.97;100.00;47730.50;5034439;28;20643;-81
2023/10/19 03:50:22;;;;;;;33.37;19.90;;;;;;;-141.97;100.00;47703.59;5034876;28;20561;-81
2023/10/19 03:52:47;;;;;;;34.73;19.80;;;;;;;-141.97;100.00;47857.38;5035084;28;20649;-83
2023/10/19 03:55:19;;;;;;;67.37;34.43;;;;;;;-141.97;100.00;47730.50;5034409;28;20163;-81
2023/10/19 03:57:52;;;;;;;61.03;31.87;;;;;;;-141.97;100.00;47795.88;5016609;28;20220;-82
2023/10/19 04:00:28;;;;;;;63.90;33.43;;;;;;;-141.97;100.00;47697.84;5016364;28;20262;-83
2023/10/19 04:02:55;;;;;;;42.77;24.03;;;;;;;-141.97;100.00;47711.28;5024348;28;20275;-83
2023/10/19 04:05:22;;;;;;;34.37;17.73;;;;;;;-141.97;100.00;47672.84;5035764;28;20249;-82
2023/10/19 04:07:55;;;;;;;31.40;18.00;;;;;;;-141.97;100.00;47757.41;5028572;28;20190;-82
2023/10/19 04:10:38;;;;;;;46.27;26.17;;;;;;;-141.97;100.00;47757.41;5032454;28;20189;-82
2023/10/19 04:13:04;;;;;;;61.27;37.10;;;;;;;-141.97;100.00;47780.47;5036136;28;20191;-83
2023/10/19 04:15:33;;;;;;;56.40;33.10;;;;;;;-141.97;100.00;47738.19;5054247;28;20193;-82
2023/10/19 04:18:00;;;;;;;58.27;34.30;;;;;;;-141.97;100.00;47751.66;5053911;28;20737;-81
2023/10/19 04:22:51;;;;;;;37.67;21.97;;;;;;;-141.97;100.00;47730.50;5033926;28;20166;-82
2023/10/19 04:25:36;;;;;;;38.20;22.60;;;;;;;-141.97;100.00;47709.38;5033631;28;20182;-82
2023/10/19 04:28:01;;;;;;;42.23;23.83;;;;;;;-141.97;100.00;47724.75;5033647;28;20182;-82
2023/10/19 04:30:27;;;;;;;37.13;20.57;;;;;;;-141.97;100.00;47759.34;5033438;28;20566;-83
2023/10/19 04:32:53;;;;;;;43.13;22.03;;;;;;;-141.97;100.00;47753.56;5034232;28;20265;-82
2023/10/19 04:35:22;;;;;;;36.90;20.83;;;;;;;-141.97;100.00;47711.28;5036404;28;20185;-84
2023/10/19 04:37:52;;;;;;;58.07;33.10;;;;;;;-141.97;100.00;47742.03;5034014;28;20170;-83
2023/10/19 04:40:18;;;;;;;65.40;38.07;;;;;;;-141.97;100.00;47718.97;5035010;28;20245;-82
2023/10/19 04:42:45;;;;;;;53.13;30.10;;;;;;;-141.97;100.00;47801.63;5041282;28;20250;-82
2023/10/19 04:45:12;;;;;;;46.50;26.30;;;;;;;-141.97;100.00;47728.59;5030348;28;20427;-83
2023/10/19 04:47:37;;;;;;;54.37;32.20;;;;;;;-141.97;100.00;47738.19;5032693;28;20197;-82
2023/10/19 04:50:04;;;;;;;48.37;28.23;;;;;;;-141.97;100.00;47715.13;5041062;28;20421;-82
2023/10/19 04:52:30;;;;;;;43.07;25.17;;;;;;;-141.97;100.00;47772.78;5035329;28;20193;-82
2023/10/19 04:54:55;;;;;;;56.60;33.03;;;;;;;-141.97;100.00;47765.09;5034447;28;20464;-82
2023/10/19 04:57:21;;;;;;;48.77;26.87;;;;;;;-141.97;100.00;47707.44;5033645;28;20308;-82
2023/10/19 04:59:47;;;;;;;70.17;39.30;;;;;;;-141.97;100.00;47724.75;5032642;28;20224;-82
2023/10/19 05:02:13;;;;;;;104.60;57.23;;;;;;;-141.97;100.00;47630.56;5015012;28;20208;-82
2023/10/19 05:04:38;;;;;;;68.13;38.80;;;;;;;-141.97;100.00;47713.22;5005191;28;20559;-82
2023/10/19 05:07:03;;;;;;;57.07;34.80;;;;;;;-141.97;100.00;47740.13;5029576;28;20170;-82
2023/10/19 05:09:30;;;;;;;57.97;32.40;;;;;;;-141.97;100.00;47703.59;5016745;28;20261;-82
2023/10/19 05:11:56;;;;;;;77.47;42.97;;;;;;;-141.97;100.00;47776.63;5017349;28;20162;-81
2023/10/19 05:14:22;;;;;;;103.47;53.33;;;;;;;-141.97;100.00;47717.06;5032565;28;20476;-83
2023/10/19 05:16:48;;;;;;;87.53;46.30;;;;;;;-141.97;100.00;47715.13;5033085;28;20423;-81
2023/10/19 05:19:14;;;;;;;101.10;50.87;;;;;;;-141.97;100.00;47726.66;5032838;28;20181;-81
2023/10/19 05:21:39;;;;;;;92.10;46.67;;;;;;;-141.97;100.00;47734.34;5032905;28;20405;-82
2023/10/19 05:24:05;;;;;;;84.30;43.07;;;;;;;-141.97;100.00;47738.19;5032532;28;20662;-81
2023/10/19 05:26:33;;;;;;;100.67;52.03;;;;;;;-141.97;100.00;47707.44;5032558;28;20674;-81
2023/10/19 05:28:58;;;;;;;102.63;48.83;;;;;;;-141.97;100.00;47780.47;5032356;28;20416;-82
2023/10/19 05:31:24;;;;;;;87.03;45.37;;;;;;;-141.97;100.00;47692.06;5032952;28;20166;-82
2023/10/19 05:33:49;;;;;;;73.50;38.47;;;;;;;-141.97;100.00;47817.00;5015267;28;20633;-81
2023/10/19 05:36:15;;;;;;;57.93;31.47;;;;;;;-141.97;100.00;47734.34;5014574;28;20186;-81
2023/10/19 05:38:41;;;;;;;50.10;28.87;;;;;;;-141.97;100.00;47757.41;5034103;28;20182;-81
2023/10/19 05:41:07;;;;;;;40.80;23.37;;;;;;;-141.97;100.00;47784.34;5028380;28;20282;-82
2023/10/19 05:43:34;;;;;;;38.97;22.53;;;;;;;-141.97;100.00;47818.94;5032207;28;20203;-83
2023/10/19 05:46:00;;;;;;;39.70;22.40;;;;;;;-141.97;100.00;47732.44;5012249;28;20216;-81
2023/10/19 05:48:26;;;;;;;42.30;23.97;;;;;;;-141.97;100.00;47772.78;5012064;28;20257;-81
2023/10/19 05:50:51;;;;;;;63.77;30.33;;;;;;;-141.97;100.00;47726.66;5012090;28;20167;-82
2023/10/19 05:53:22;;;;;;;67.80;31.63;;;;;;;-141.97;100.00;47732.44;5011931;28;20236;-81
2023/10/19 05:55:49;;;;;;;52.40;29.07;;;;;;;-141.97;100.00;47765.09;5012011;28;20170;-82
2023/10/19 05:58:14;;;;;;;59.27;31.57;;;;;;;-141.97;100.00;47803.56;5012346;28;20631;-82
2023/10/19 06:00:40;;;;;;;48.13;27.03;;;;;;;-141.97;100.00;47692.06;5012095;28;20183;-83
2023/10/19 06:03:05;;;;;;;42.43;24.53;;;;;;;-141.97;100.00;47842.00;5001736;28;20226;-81
2023/10/19 06:05:30;;;;;;;42.27;24.10;;;;;;;-141.97;100.00;47742.03;5011757;28;20202;-81
2023/10/19 06:07:56;;;;;;;39.00;22.83;;;;;;;-141.97;100.00;47753.56;5012039;28;20261;-81
2023/10/19 06:10:22;;;;;;;36.47;20.33;;;;;;;-141.97;100.00;47801.63;5018145;28;20167;-81
2023/10/19 06:12:49;;;;;;;46.00;21.43;;;;;;;-141.97;100.00;47753.56;5018522;28;20194;-82
2023/10/19 06:15:16;;;;;;;37.63;19.57;;;;;;;-141.97;100.00;47757.41;5011163;28;20607;-85
2023/10/19 06:17:42;;;;;;;36.23;19.77;;;;;;;-141.97;100.00;47855.44;5014557;28;20735;-83
2023/10/19 06:20:19;;;;;;;53.40;30.10;;;;;;;-141.97;100.00;47734.34;5015062;28;20253;-80
2023/10/19 06:22:50;;;;;;;37.60;21.40;;;;;;;-141.97;100.00;47697.84;5011558;28;20236;-80
2023/10/19 06:25:17;;;;;;;43.30;20.60;;;;;;;-141.97;100.00;47734.34;5024706;28;20218;-81
2023/10/19 06:27:53;;;;;;;34.33;18.53;;;;;;;-141.97;100.00;47778.56;5035933;28;20186;-82
2023/10/19 06:30:27;;;;;;;34.63;18.83;;;;;;;-141.97;100.00;47740.13;5028617;28;20197;-81
2023/10/19 06:32:55;;;;;;;36.17;18.93;;;;;;;-141.97;100.00;47747.81;5013256;28;20189;-79
2023/10/19 06:35:22;;;;;;;35.07;19.13;;;;;;;-141.97;100.00;47722.81;5009704;28;20200;-79
2023/10/19 06:37:48;;;;;;;35.73;18.87;;;;;;;-141.97;100.00;47757.41;4998379;28;20230;-81
2023/10/19 06:40:16;;;;;;;31.83;18.03;;;;;;;-141.97;100.00;47780.47;5008416;28;20261;-80
2023/10/19 06:42:50;;;;;;;30.83;17.57;;;;;;;-141.97;100.00;47772.78;5013703;28;20217;-80
2023/10/19 06:45:18;;;;;;;31.30;18.30;;;;;;;-141.97;100.00;47738.19;5012408;28;20626;-80
2023/10/19 06:47:46;;;;;;;29.77;18.23;;;;;;;-141.97;100.00;47797.78;5012704;28;20190;-81
2023/10/19 06:50:15;;;;;;;31.43;18.83;;;;;;;-141.97;100.00;47811.25;5012376;28;20167;-81
2023/10/19 06:52:42;;;;;;;31.30;18.17;;;;;;;-141.97;100.00;47609.41;5012720;28;20162;-81
2023/10/19 06:55:16;;;;;;;35.93;18.97;;;;;;;-141.97;100.00;47742.03;5011874;28;20189;-82
2023/10/19 06:58:25;;;;;;;;;;;;;;;;;;;;;
2023/10/19 07:00:59;;;;;;;34.20;18.20;;;;;;;-141.97;100.00;47557.53;4998924;28;20260;-82
2023/10/19 07:03:30;;;;;;;25.70;17.33;;;;;;;-141.97;100.00;47726.66;5012351;28;20641;-80
2023/10/19 07:05:56;;;;;;;28.37;17.67;;;;;;;-141.97;100.00;47765.09;4996886;28;20675;-82
2023/10/19 07:08:22;;;;;;;28.67;18.80;;;;;;;-141.97;100.00;47772.78;5006290;28;20206;-81
2023/10/19 07:10:50;;;;;;;28.53;18.97;;;;;;;-141.97;100.00;47772.78;5011004;28;20253;-81
2023/10/19 07:13:16;;;;;;;32.77;22.27;;;;;;;-141.97;100.00;47553.69;5011037;28;20166;-81
2023/10/19 07:15:41;;;;;;;40.67;23.63;;;;;;;-141.97;100.00;47857.38;5014286;28;20236;-81
2023/10/19 07:18:07;;;;;;;37.47;24.67;;;;;;;-141.97;100.00;47745.88;5023517;28;20277;-81
2023/10/19 07:20:35;;;;;;;34.93;21.80;;;;;;;-141.97;100.00;47619.03;5013640;28;20198;-81
2023/10/19 07:25:52;;;;;;;59.80;39.07;;;;;;;-141.97;100.00;47767.03;5014133;28;20614;-81
2023/10/19 07:28:21;;;;;;;52.60;30.47;;;;;;;-141.97;100.00;47811.25;5015971;28;20155;-81
2023/10/19 07:30:47;;;;;;;59.43;38.03;;;;;;;-141.97;100.00;47805.47;5011858;28;20186;-81
2023/10/19 07:33:17;;;;;;;57.33;37.33;;;;;;;-141.97;100.00;47522.91;5014205;28;20175;-82
2023/10/19 07:35:43;;;;;;;76.23;44.90;;;;;;;-141.97;100.00;47661.31;5016436;28;20158;-82
2023/10/19 07:38:09;;;;;;;63.90;40.30;;;;;;;-141.97;100.00;47705.53;5012045;28;20159;-81
2023/10/19 07:40:36;;;;;;;56.13;30.37;;;;;;;-141.97;100.00;47726.66;5022052;28;20222;-81
2023/10/19 07:43:03;;;;;;;35.30;22.50;;;;;;;-141.97;100.00;47851.59;5032705;28;20170;-80
2023/10/19 07:45:31;;;;;;;29.73;17.00;;;;;;;-141.97;100.00;47663.22;5032588;28;20158;-81
2023/10/19 07:47:57;;;;;;;24.47;15.73;;;;;;;-141.97;100.00;47738.19;5037024;28;20182;-81
2023/10/19 07:50:23;;;;;;;22.37;15.67;;;;;;;-141.97;100.00;47726.66;5030022;28;20255;-81
2023/10/19 07:52:53;;;;;;;24.43;16.30;;;;;;;-141.97;100.00;47619.03;5030430;28;20626;-81
2023/10/19 07:55:21;;;;;;;28.87;17.47;;;;;;;-141.97;100.00;47776.63;5030690;28;20196;-81
2023/10/19 07:57:50;;;;;;;29.13;17.23;;;;;;;-141.97;99.21;47595.97;5030650;28;20159;-81
2023/10/19 08:00:17;;;;;;;27.43;18.17;;;;;;;-141.97;97.21;47699.75;5030314;28;20174;-81
2023/10/19 08:02:45;;;;;;;28.63;17.60;;;;;;;-141.97;95.67;47811.25;5030583;28;20308;-82
2023/10/19 08:05:12;;;;;;;26.20;16.53;;;;;;;-141.97;96.52;47795.88;5029733;28;20190;-81
2023/10/19 08:07:39;;;;;;;29.23;17.53;;;;;;;-141.97;97.87;47788.19;5030480;28;20602;-81
2023/10/19 08:10:09;;;;;;;29.47;17.57;;;;;;;-141.97;95.25;47711.28;5033706;28;20201;-79
2023/10/19 08:12:35;;;;;;;32.30;19.93;;;;;;;-141.97;92.77;47765.09;5054778;28;20170;-81
2023/10/19 08:15:01;;;;;;;30.90;18.83;;;;;;;-141.97;91.64;47580.59;5043411;28;20162;-81
2023/10/19 08:17:26;;;;;;;25.60;16.37;;;;;;;-141.97;89.72;47676.69;5035360;28;20269;-81
2023/10/19 08:19:52;;;;;;;25.87;16.70;;;;;;;-141.97;89.02;47669.00;5037407;28;20215;-82
2023/10/19 08:22:17;;;;;;;33.70;17.97;;;;;;;-141.97;89.06;47803.56;5035316;28;20162;-82
2023/10/19 08:24:43;;;;;;;31.73;18.30;;;;;;;-141.97;88.00;47665.16;5017242;28;20198;-82
2023/10/19 08:27:10;;;;;;;29.00;16.70;;;;;;;-141.97;85.56;47676.69;5034210;28;20692;-81
2023/10/19 08:29:37;;;;;;;31.97;18.60;;;;;;;-141.97;61.43;47718.97;5033979;28;20162;-80
2023/10/19 08:32:02;;;;;;;33.43;18.43;;;;;;;-141.97;60.44;47676.69;5016151;28;20205;-80
2023/10/19 08:34:29;;;;;;;27.70;16.80;;;;;;;-141.97;59.60;47707.44;5036123;28;20538;-81
2023/10/19 08:36:55;;;;;;;27.83;16.33;;;;;;;-141.97;60.21;47686.31;5039768;28;20212;-81
2023/10/19 08:39:21;;;;;;;25.50;16.90;;;;;;;-141.97;60.18;47840.06;5023931;28;20680;-81
2023/10/19 08:41:49;;;;;;;25.37;16.97;;;;;;;-141.97;60.18;47680.53;5033903;28;20300;-82
2023/10/19 08:44:18;;;;;;;23.40;15.53;;;;;;;-141.97;59.32;47703.59;5045215;28;20194;-80
2023/10/19 08:46:45;;;;;;;25.50;17.47;;;;;;;-141.97;60.05;47680.53;5037593;28;20166;-81
2023/10/19 08:49:15;;;;;;;25.97;18.43;;;;;;;-141.97;59.46;47682.47;5033744;28;20602;-81
2023/10/19 08:51:45;;;;;;;28.57;19.60;;;;;;;-141.97;58.61;47669.00;5015258;28;20170;-81
2023/10/19 08:54:12;;;;;;;28.27;19.00;;;;;;;-141.97;57.69;47670.91;5033387;28;20184;-81
2023/10/19 08:56:38;;;;;;;29.57;19.23;;;;;;;-141.97;57.84;47742.03;5033283;28;20173;-81
2023/10/19 08:59:05;;;;;;;27.60;18.63;;;;;;;-141.97;57.45;47770.88;5033227;28;20169;-81
2023/10/19 09:01:31;;;;;;;28.77;18.80;;;;;;;-141.97;56.89;47613.25;5014530;28;20619;-80
2023/10/19 09:03:58;;;;;;;27.67;19.47;;;;;;;-141.97;56.94;47634.41;5032776;28;20258;-81
2023/10/19 09:06:24;;;;;;;31.80;20.83;;;;;;;-141.97;56.42;47557.53;5033105;28;20158;-81
2023/10/19 09:08:49;;;;;;;36.43;22.60;;;;;;;-141.97;56.66;47686.31;5046116;28;20233;-79
2023/10/19 09:11:15;;;;;;;36.13;23.47;;;;;;;-141.97;55.82;47667.06;5014307;28;20197;-81
2023/10/19 09:13:49;;;;;;;36.70;24.00;;;;;;;-141.97;56.28;47563.28;5044561;28;20172;-81
2023/10/19 09:16:23;;;;;;;33.50;22.93;;;;;;;-141.97;56.02;47622.88;5034565;28;20199;-80
2023/10/19 09:18:51;;;;;;;37.10;23.47;;;;;;;-141.97;56.05;47592.13;5052722;28;20162;-81
2023/10/19 09:21:24;;;;;;;36.00;22.43;;;;;;;-141.97;55.46;47688.22;5040117;28;20174;-82
2023/10/19 09:23:51;;;;;;;32.27;21.37;;;;;;;-141.97;55.87;47647.84;5032229;28;20309;-81
2023/10/19 09:26:17;;;;;;;29.40;20.27;;;;;;;-141.97;55.72;47795.88;5032445;28;20162;-81
2023/10/19 09:28:47;;;;;;;28.77;18.60;;;;;;;-141.97;54.37;47680.53;5032554;28;20158;-81
2023/10/19 09:31:13;;;;;;;24.70;17.90;;;;;;;-141.97;53.34;47803.56;5031981;28;20586;-81
2023/10/19 09:33:41;;;;;;;27.83;18.13;;;;;;;-141.97;52.66;47688.22;5014544;28;20180;-82
2023/10/19 09:36:15;;;;;;;26.77;16.47;;;;;;;-141.97;53.44;47676.69;5032503;28;20162;-81
2023/10/19 09:38:43;;;;;;;23.73;16.27;;;;;;;-141.97;53.53;47692.06;5022984;28;20543;-81
2023/10/19 09:41:12;;;;;;;21.77;16.63;;;;;;;-141.97;53.30;47651.69;5014492;28;20214;-81
2023/10/19 09:43:41;;;;;;;23.60;16.60;;;;;;;-141.97;52.68;47638.25;5014916;28;20224;-81
2023/10/19 09:46:08;;;;;;;21.43;15.70;;;;;;;-141.97;51.74;47570.97;5031979;28;20184;-80
2023/10/19 09:48:47;;;;;;;23.37;15.67;;;;;;;-141.97;51.72;47799.72;5014349;28;20636;-80
2023/10/19 09:51:17;;;;;;;21.30;15.93;;;;;;;-141.97;51.48;47667.06;5030927;28;20235;-80
2023/10/19 09:53:51;;;;;;;22.70;16.30;;;;;;;-141.97;51.68;47580.59;5017435;28;20178;-81
2023/10/19 09:56:25;;;;;;;22.17;15.27;;;;;;;-141.97;51.02;47628.63;5014519;28;20560;-81
2023/10/19 09:58:58;;;;;;;21.93;15.10;;;;;;;-141.97;52.14;47630.56;5014419;28;20256;-81
2023/10/19 10:01:26;;;;;;;21.60;14.90;;;;;;;-141.97;50.70;47576.75;5032186;28;20182;-81
2023/10/19 10:03:52;;;;;;;18.17;14.47;;;;;;;-141.97;51.08;47832.38;5032033;28;20190;-80
2023/10/19 10:06:51;;;;;;;19.57;14.70;;;;;;;-141.97;51.38;47659.38;5031705;28;20265;-80
2023/10/19 10:09:26;;;;;;;21.00;14.73;;;;;;;-141.97;51.09;47665.16;4994019;28;20653;-81
2023/10/19 10:11:52;;;;;;;23.10;16.23;;;;;;;-141.97;51.95;47661.31;5017814;28;20189;-81
2023/10/19 10:14:28;;;;;;;23.57;17.30;;;;;;;-141.97;52.95;47695.91;5031418;28;20637;-80
2023/10/19 10:17:04;;;;;;;26.10;16.27;;;;;;;-141.97;53.32;47665.16;5045837;28;20650;-81
2023/10/19 10:19:30;;;;;;;20.93;15.53;;;;;;;-141.97;53.79;47638.25;5050425;28;20232;-80
2023/10/19 10:22:11;;;;;;;18.53;13.90;;;;;;;-141.97;53.73;47692.06;5044154;28;20190;-82
2023/10/19 10:24:41;;;;;;;19.67;13.97;;;;;;;-141.97;53.68;47670.91;5031294;28;20186;-78
2023/10/19 10:27:06;;;;;;;20.10;13.30;;;;;;;-141.97;52.52;47667.06;5033023;28;20162;-81
2023/10/19 10:29:32;;;;;;;19.50;13.90;;;;;;;-141.97;52.80;47665.16;5036607;28;20712;-80
2023/10/19 10:31:58;;;;;;;20.13;13.50;;;;;;;-141.97;51.74;47647.84;5033998;28;20170;-81
2023/10/19 10:34:33;;;;;;;21.17;15.43;;;;;;;-141.97;50.79;47667.06;5019002;28;20184;-79
2023/10/19 10:37:02;;;;;;;20.00;13.43;;;;;;;-141.97;50.43;47661.31;5042880;28;20287;-80
2023/10/19 10:39:30;;;;;;;20.10;14.20;;;;;;;-141.97;50.04;47615.19;5025261;28;20238;-80
2023/10/19 10:41:59;;;;;;;17.00;12.90;;;;;;;-141.97;50.49;47682.47;5033596;28;20273;-80
2023/10/19 10:44:42;;;;;;;18.47;12.90;;;;;;;-141.97;50.61;47574.81;5047063;28;20197;-80
2023/10/19 10:47:10;;;;;;;17.10;13.13;;;;;;;-141.97;50.84;47592.13;5031943;28;20694;-81
2023/10/19 10:49:59;;;;;;;14.77;12.27;;;;;;;-141.97;49.81;47699.75;5031191;28;20166;-79
2023/10/19 10:52:31;;;;;;;17.83;11.60;;;;;;;-141.97;49.08;47669.00;5031637;28;20166;-80
2023/10/19 10:55:06;;;;;;;14.17;11.13;;;;;;;-141.97;48.72;47649.78;5031215;28;20146;-78
2023/10/19 10:57:32;;;;;;;16.50;12.10;;;;;;;-141.97;48.88;47659.38;5030928;28;20150;-79
2023/10/19 11:00:16;;;;;;;15.03;11.97;;;;;;;-141.97;49.31;47626.72;5030828;28;20166;-79
2023/10/19 11:02:43;;;;;;;14.50;12.03;;;;;;;-141.97;47.86;47642.09;5030642;28;20169;-81
2023/10/19 11:05:11;;;;;;;16.90;12.97;;;;;;;-141.97;48.89;47628.63;5031014;28;20280;-81
2023/10/19 11:07:38;;;;;;;19.93;13.03;;;;;;;-141.97;49.27;47626.72;5013633;28;20285;-81
2023/10/19 11:10:03;;;;;;;16.70;13.07;;;;;;;-141.97;49.84;47670.91;5031396;28;20186;-82
2023/10/19 11:12:29;;;;;;;17.63;14.20;;;;;;;-141.97;50.15;47659.38;5030516;28;20208;-81
2023/10/19 11:14:59;;;;;;;17.47;13.60;;;;;;;-141.97;49.79;47628.63;5032924;28;20170;-81